sensor_id;sensor_type;location;lat;lon;timestamp;P1;durP1;ratioP1;P2;durP2;ratioP2
69569;SDS011;56781;42.292;23.146;2022-11-21T00:01:11;15.87;;;6.67;;
69569;SDS011;56781;42.292;23.146;2022-11-21T00:03:44;20.90;;;8.05;;
69569;SDS011;56781;42.292;23.146;2022-11-21T00:06:11;6.40;;;1.83;;
69569;SDS011;56781;42.292;23.146;2022-11-21T00:08:39;13.07;;;4.13;;
69569;SDS011;56781;42.292;23.146;2022-11-21T00:11:06;18.50;;;4.78;;
69569;SDS011;56781;42.292;23.146;2022-11-21T00:13:33;10.10;;;3.07;;
69569;SDS011;56781;42.292;23.146;2022-11-21T00:16:04;20.45;;;7.47;;
69569;SDS011;56781;42.292;23.146;2022-11-21T00:18:33;13.30;;;3.90;;
69569;SDS011;56781;42.292;23.146;2022-11-21T00:21:07;10.70;;;3.03;;
69569;SDS011;56781;42.292;23.146;2022-11-21T00:23:37;11.38;;;4.88;;
69569;SDS011;56781;42.292;23.146;2022-11-21T00:26:05;4.60;;;1.40;;
69569;SDS011;56781;42.292;23.146;2022-11-21T00:28:33;7.00;;;0.90;;
69569;SDS011;56781;42.292;23.146;2022-11-21T00:31:01;4.10;;;1.13;;
69569;SDS011;56781;42.292;23.146;2022-11-21T00:33:29;2.78;;;0.90;;
69569;SDS011;56781;42.292;23.146;2022-11-21T00:35:56;5.85;;;1.40;;
69569;SDS011;56781;42.292;23.146;2022-11-21T00:38:23;5.57;;;1.20;;
69569;SDS011;56781;42.292;23.146;2022-11-21T00:40:50;4.10;;;1.30;;
69569;SDS011;56781;42.292;23.146;2022-11-21T00:43:17;5.45;;;1.50;;
69569;SDS011;56781;42.292;23.146;2022-11-21T00:45:44;5.68;;;1.38;;
69569;SDS011;56781;42.292;23.146;2022-11-21T00:48:11;4.03;;;0.95;;
69569;SDS011;56781;42.292;23.146;2022-11-21T00:50:38;3.03;;;1.20;;
69569;SDS011;56781;42.292;23.146;2022-11-21T00:53:05;6.40;;;1.20;;
69569;SDS011;56781;42.292;23.146;2022-11-21T00:55:32;5.70;;;0.85;;
69569;SDS011;56781;42.292;23.146;2022-11-21T00:57:59;5.95;;;2.00;;
69569;SDS011;56781;42.292;23.146;2022-11-21T01:00:26;9.95;;;3.47;;
69569;SDS011;56781;42.292;23.146;2022-11-21T01:02:53;7.73;;;2.17;;
69569;SDS011;56781;42.292;23.146;2022-11-21T01:05:21;5.93;;;1.38;;
69569;SDS011;56781;42.292;23.146;2022-11-21T01:07:48;4.75;;;1.23;;
69569;SDS011;56781;42.292;23.146;2022-11-21T01:10:15;5.50;;;0.90;;
69569;SDS011;56781;42.292;23.146;2022-11-21T01:12:42;5.40;;;0.80;;
69569;SDS011;56781;42.292;23.146;2022-11-21T01:15:10;4.80;;;1.30;;
69569;SDS011;56781;42.292;23.146;2022-11-21T01:17:37;4.25;;;0.98;;
69569;SDS011;56781;42.292;23.146;2022-11-21T01:20:04;3.83;;;1.08;;
69569;SDS011;56781;42.292;23.146;2022-11-21T01:22:32;3.88;;;1.00;;
69569;SDS011;56781;42.292;23.146;2022-11-21T01:24:59;4.72;;;1.40;;
69569;SDS011;56781;42.292;23.146;2022-11-21T01:27:26;3.00;;;0.80;;
69569;SDS011;56781;42.292;23.146;2022-11-21T01:29:54;6.28;;;1.40;;
69569;SDS011;56781;42.292;23.146;2022-11-21T01:32:21;5.20;;;1.05;;
69569;SDS011;56781;42.292;23.146;2022-11-21T01:34:48;3.85;;;0.90;;
69569;SDS011;56781;42.292;23.146;2022-11-21T01:37:15;3.67;;;0.82;;
69569;SDS011;56781;42.292;23.146;2022-11-21T01:39:42;5.97;;;1.57;;
69569;SDS011;56781;42.292;23.146;2022-11-21T01:42:09;4.53;;;1.33;;
69569;SDS011;56781;42.292;23.146;2022-11-21T01:44:45;3.95;;;0.77;;
69569;SDS011;56781;42.292;23.146;2022-11-21T01:47:16;5.57;;;1.23;;
69569;SDS011;56781;42.292;23.146;2022-11-21T01:49:44;5.95;;;1.15;;
69569;SDS011;56781;42.292;23.146;2022-11-21T01:52:30;6.17;;;1.30;;
69569;SDS011;56781;42.292;23.146;2022-11-21T01:55:01;5.53;;;1.10;;
69569;SDS011;56781;42.292;23.146;2022-11-21T01:57:32;4.90;;;0.90;;
69569;SDS011;56781;42.292;23.146;2022-11-21T02:00:02;6.60;;;1.02;;
69569;SDS011;56781;42.292;23.146;2022-11-21T02:02:39;4.95;;;1.08;;
69569;SDS011;56781;42.292;23.146;2022-11-21T02:05:10;4.77;;;1.10;;
69569;SDS011;56781;42.292;23.146;2022-11-21T02:07:42;3.85;;;1.00;;
69569;SDS011;56781;42.292;23.146;2022-11-21T02:10:11;3.03;;;0.80;;
69569;SDS011;56781;42.292;23.146;2022-11-21T02:12:42;3.28;;;0.80;;
69569;SDS011;56781;42.292;23.146;2022-11-21T02:15:15;8.02;;;1.10;;
69569;SDS011;56781;42.292;23.146;2022-11-21T02:17:43;5.60;;;1.07;;
69569;SDS011;56781;42.292;23.146;2022-11-21T02:20:14;6.63;;;1.45;;
69569;SDS011;56781;42.292;23.146;2022-11-21T02:22:54;5.43;;;0.98;;
69569;SDS011;56781;42.292;23.146;2022-11-21T02:25:26;9.55;;;1.40;;
69569;SDS011;56781;42.292;23.146;2022-11-21T02:28:00;5.30;;;1.20;;
69569;SDS011;56781;42.292;23.146;2022-11-21T02:30:29;4.57;;;1.00;;
69569;SDS011;56781;42.292;23.146;2022-11-21T02:32:58;4.25;;;0.85;;
69569;SDS011;56781;42.292;23.146;2022-11-21T02:35:25;5.50;;;1.25;;
69569;SDS011;56781;42.292;23.146;2022-11-21T02:38:00;8.63;;;1.23;;
69569;SDS011;56781;42.292;23.146;2022-11-21T02:40:51;7.95;;;1.55;;
69569;SDS011;56781;42.292;23.146;2022-11-21T02:43:32;6.50;;;1.90;;
69569;SDS011;56781;42.292;23.146;2022-11-21T02:46:06;4.65;;;1.35;;
69569;SDS011;56781;42.292;23.146;2022-11-21T02:48:34;8.18;;;1.15;;
69569;SDS011;56781;42.292;23.146;2022-11-21T02:51:03;4.78;;;1.10;;
69569;SDS011;56781;42.292;23.146;2022-11-21T02:53:31;6.65;;;1.08;;
69569;SDS011;56781;42.292;23.146;2022-11-21T02:55:58;4.13;;;1.30;;
69569;SDS011;56781;42.292;23.146;2022-11-21T02:58:25;5.47;;;1.30;;
69569;SDS011;56781;42.292;23.146;2022-11-21T03:00:52;8.13;;;1.20;;
69569;SDS011;56781;42.292;23.146;2022-11-21T03:03:21;8.25;;;1.73;;
69569;SDS011;56781;42.292;23.146;2022-11-21T03:05:48;5.47;;;0.90;;
69569;SDS011;56781;42.292;23.146;2022-11-21T03:08:15;10.17;;;1.40;;
69569;SDS011;56781;42.292;23.146;2022-11-21T03:10:42;5.72;;;1.40;;
69569;SDS011;56781;42.292;23.146;2022-11-21T03:13:09;6.80;;;1.45;;
69569;SDS011;56781;42.292;23.146;2022-11-21T03:15:36;4.65;;;1.27;;
69569;SDS011;56781;42.292;23.146;2022-11-21T03:18:03;6.22;;;1.30;;
69569;SDS011;56781;42.292;23.146;2022-11-21T03:20:31;6.00;;;1.30;;
69569;SDS011;56781;42.292;23.146;2022-11-21T03:23:00;5.75;;;1.20;;
69569;SDS011;56781;42.292;23.146;2022-11-21T03:25:27;6.13;;;1.75;;
69569;SDS011;56781;42.292;23.146;2022-11-21T03:27:55;10.30;;;1.40;;
69569;SDS011;56781;42.292;23.146;2022-11-21T03:30:23;10.38;;;1.85;;
69569;SDS011;56781;42.292;23.146;2022-11-21T03:32:55;8.70;;;1.50;;
69569;SDS011;56781;42.292;23.146;2022-11-21T03:35:22;5.65;;;1.80;;
69569;SDS011;56781;42.292;23.146;2022-11-21T03:37:50;11.65;;;1.95;;
69569;SDS011;56781;42.292;23.146;2022-11-21T03:40:17;8.30;;;1.50;;
69569;SDS011;56781;42.292;23.146;2022-11-21T03:42:44;6.65;;;1.60;;
69569;SDS011;56781;42.292;23.146;2022-11-21T03:45:11;7.87;;;1.40;;
69569;SDS011;56781;42.292;23.146;2022-11-21T03:47:38;8.07;;;1.50;;
69569;SDS011;56781;42.292;23.146;2022-11-21T03:50:06;6.88;;;1.45;;
69569;SDS011;56781;42.292;23.146;2022-11-21T03:52:34;3.53;;;1.33;;
69569;SDS011;56781;42.292;23.146;2022-11-21T03:55:01;6.93;;;1.70;;
69569;SDS011;56781;42.292;23.146;2022-11-21T03:57:28;10.27;;;1.80;;
69569;SDS011;56781;42.292;23.146;2022-11-21T03:59:55;6.25;;;1.50;;
69569;SDS011;56781;42.292;23.146;2022-11-21T04:02:22;5.40;;;1.40;;
69569;SDS011;56781;42.292;23.146;2022-11-21T04:04:49;6.90;;;1.90;;
69569;SDS011;56781;42.292;23.146;2022-11-21T04:07:16;7.13;;;1.80;;
69569;SDS011;56781;42.292;23.146;2022-11-21T04:09:43;4.80;;;1.00;;
69569;SDS011;56781;42.292;23.146;2022-11-21T04:12:10;5.28;;;1.10;;
69569;SDS011;56781;42.292;23.146;2022-11-21T04:14:37;7.10;;;1.15;;
69569;SDS011;56781;42.292;23.146;2022-11-21T04:17:04;5.97;;;1.02;;
69569;SDS011;56781;42.292;23.146;2022-11-21T04:19:31;5.70;;;1.17;;
69569;SDS011;56781;42.292;23.146;2022-11-21T04:21:58;11.87;;;1.97;;
69569;SDS011;56781;42.292;23.146;2022-11-21T04:24:25;7.75;;;1.20;;
69569;SDS011;56781;42.292;23.146;2022-11-21T04:26:53;6.55;;;1.20;;
69569;SDS011;56781;42.292;23.146;2022-11-21T04:29:21;8.25;;;1.30;;
69569;SDS011;56781;42.292;23.146;2022-11-21T04:31:48;4.93;;;1.40;;
69569;SDS011;56781;42.292;23.146;2022-11-21T04:34:15;6.53;;;1.40;;
69569;SDS011;56781;42.292;23.146;2022-11-21T04:36:42;5.22;;;1.25;;
69569;SDS011;56781;42.292;23.146;2022-11-21T04:39:09;4.50;;;1.00;;
69569;SDS011;56781;42.292;23.146;2022-11-21T04:41:36;7.93;;;1.13;;
69569;SDS011;56781;42.292;23.146;2022-11-21T04:44:03;4.20;;;1.00;;
69569;SDS011;56781;42.292;23.146;2022-11-21T04:46:31;4.40;;;1.10;;
69569;SDS011;56781;42.292;23.146;2022-11-21T04:48:58;6.72;;;1.20;;
69569;SDS011;56781;42.292;23.146;2022-11-21T04:51:25;6.03;;;1.20;;
69569;SDS011;56781;42.292;23.146;2022-11-21T04:53:52;5.10;;;1.27;;
69569;SDS011;56781;42.292;23.146;2022-11-21T04:56:19;6.03;;;1.83;;
69569;SDS011;56781;42.292;23.146;2022-11-21T04:58:46;3.80;;;1.10;;
69569;SDS011;56781;42.292;23.146;2022-11-21T05:01:13;6.32;;;1.27;;
69569;SDS011;56781;42.292;23.146;2022-11-21T05:03:40;5.53;;;1.20;;
69569;SDS011;56781;42.292;23.146;2022-11-21T05:06:07;5.10;;;2.00;;
69569;SDS011;56781;42.292;23.146;2022-11-21T05:08:34;7.22;;;1.50;;
69569;SDS011;56781;42.292;23.146;2022-11-21T05:11:01;8.43;;;2.50;;
69569;SDS011;56781;42.292;23.146;2022-11-21T05:13:46;7.93;;;4.40;;
69569;SDS011;56781;42.292;23.146;2022-11-21T05:16:14;6.65;;;1.50;;
69569;SDS011;56781;42.292;23.146;2022-11-21T05:18:41;5.18;;;1.42;;
69569;SDS011;56781;42.292;23.146;2022-11-21T05:21:08;4.78;;;1.10;;
69569;SDS011;56781;42.292;23.146;2022-11-21T05:23:35;6.63;;;1.10;;
69569;SDS011;56781;42.292;23.146;2022-11-21T05:26:02;6.28;;;1.83;;
69569;SDS011;56781;42.292;23.146;2022-11-21T05:28:29;7.47;;;1.08;;
69569;SDS011;56781;42.292;23.146;2022-11-21T05:30:56;6.40;;;1.67;;
69569;SDS011;56781;42.292;23.146;2022-11-21T05:33:23;6.05;;;1.52;;
69569;SDS011;56781;42.292;23.146;2022-11-21T05:35:50;6.90;;;1.10;;
69569;SDS011;56781;42.292;23.146;2022-11-21T05:38:17;4.53;;;1.20;;
69569;SDS011;56781;42.292;23.146;2022-11-21T05:40:44;8.40;;;1.30;;
69569;SDS011;56781;42.292;23.146;2022-11-21T05:43:11;7.60;;;2.00;;
69569;SDS011;56781;42.292;23.146;2022-11-21T05:45:57;7.53;;;2.50;;
69569;SDS011;56781;42.292;23.146;2022-11-21T05:48:24;6.83;;;2.60;;
69569;SDS011;56781;42.292;23.146;2022-11-21T05:50:51;7.15;;;1.60;;
69569;SDS011;56781;42.292;23.146;2022-11-21T05:53:18;4.75;;;1.60;;
69569;SDS011;56781;42.292;23.146;2022-11-21T05:55:45;8.20;;;2.53;;
69569;SDS011;56781;42.292;23.146;2022-11-21T05:58:13;5.30;;;2.25;;
69569;SDS011;56781;42.292;23.146;2022-11-21T06:00:40;3.97;;;1.20;;
69569;SDS011;56781;42.292;23.146;2022-11-21T06:03:08;4.35;;;1.20;;
69569;SDS011;56781;42.292;23.146;2022-11-21T06:06:00;3.17;;;0.70;;
69569;SDS011;56781;42.292;23.146;2022-11-21T06:08:31;4.93;;;1.50;;
69569;SDS011;56781;42.292;23.146;2022-11-21T06:11:03;5.60;;;1.38;;
69569;SDS011;56781;42.292;23.146;2022-11-21T06:13:31;6.97;;;1.67;;
69569;SDS011;56781;42.292;23.146;2022-11-21T06:16:03;4.82;;;1.08;;
69569;SDS011;56781;42.292;23.146;2022-11-21T06:18:32;3.15;;;1.05;;
69569;SDS011;56781;42.292;23.146;2022-11-21T06:21:04;4.25;;;0.93;;
69569;SDS011;56781;42.292;23.146;2022-11-21T06:23:44;5.80;;;1.00;;
69569;SDS011;56781;42.292;23.146;2022-11-21T06:26:13;4.60;;;1.00;;
69569;SDS011;56781;42.292;23.146;2022-11-21T06:28:42;5.82;;;0.93;;
69569;SDS011;56781;42.292;23.146;2022-11-21T06:31:11;4.45;;;1.27;;
69569;SDS011;56781;42.292;23.146;2022-11-21T06:33:43;4.72;;;1.58;;
69569;SDS011;56781;42.292;23.146;2022-11-21T06:36:13;7.60;;;1.58;;
69569;SDS011;56781;42.292;23.146;2022-11-21T06:38:42;5.55;;;1.13;;
69569;SDS011;56781;42.292;23.146;2022-11-21T06:41:20;9.65;;;2.63;;
69569;SDS011;56781;42.292;23.146;2022-11-21T06:43:48;5.93;;;1.85;;
69569;SDS011;56781;42.292;23.146;2022-11-21T06:46:16;11.63;;;3.05;;
69569;SDS011;56781;42.292;23.146;2022-11-21T06:48:43;7.50;;;2.28;;
69569;SDS011;56781;42.292;23.146;2022-11-21T06:51:18;6.05;;;1.52;;
69569;SDS011;56781;42.292;23.146;2022-11-21T06:53:46;4.75;;;1.20;;
69569;SDS011;56781;42.292;23.146;2022-11-21T06:56:21;6.82;;;1.52;;
69569;SDS011;56781;42.292;23.146;2022-11-21T06:58:50;4.15;;;1.00;;
69569;SDS011;56781;42.292;23.146;2022-11-21T07:01:18;4.20;;;1.00;;
69569;SDS011;56781;42.292;23.146;2022-11-21T07:03:45;6.17;;;2.43;;
69569;SDS011;56781;42.292;23.146;2022-11-21T07:06:13;7.57;;;1.90;;
69569;SDS011;56781;42.292;23.146;2022-11-21T07:08:40;6.60;;;1.85;;
69569;SDS011;56781;42.292;23.146;2022-11-21T07:11:10;6.60;;;1.90;;
69569;SDS011;56781;42.292;23.146;2022-11-21T07:13:54;7.35;;;1.42;;
69569;SDS011;56781;42.292;23.146;2022-11-21T07:16:21;4.40;;;0.83;;
69569;SDS011;56781;42.292;23.146;2022-11-21T07:18:51;5.35;;;1.30;;
69569;SDS011;56781;42.292;23.146;2022-11-21T07:21:18;4.47;;;1.20;;
69569;SDS011;56781;42.292;23.146;2022-11-21T07:23:45;4.38;;;0.98;;
69569;SDS011;56781;42.292;23.146;2022-11-21T07:26:13;4.07;;;1.10;;
69569;SDS011;56781;42.292;23.146;2022-11-21T07:28:40;4.63;;;1.30;;
69569;SDS011;56781;42.292;23.146;2022-11-21T07:31:08;6.60;;;1.58;;
69569;SDS011;56781;42.292;23.146;2022-11-21T07:33:39;5.93;;;1.10;;
69569;SDS011;56781;42.292;23.146;2022-11-21T07:36:09;4.63;;;1.10;;
69569;SDS011;56781;42.292;23.146;2022-11-21T07:38:37;5.85;;;1.60;;
69569;SDS011;56781;42.292;23.146;2022-11-21T07:41:04;4.27;;;1.07;;
69569;SDS011;56781;42.292;23.146;2022-11-21T07:43:31;9.63;;;1.35;;
69569;SDS011;56781;42.292;23.146;2022-11-21T07:45:58;4.35;;;1.25;;
69569;SDS011;56781;42.292;23.146;2022-11-21T07:48:25;9.10;;;4.97;;
69569;SDS011;56781;42.292;23.146;2022-11-21T07:50:52;6.53;;;1.88;;
69569;SDS011;56781;42.292;23.146;2022-11-21T07:53:19;6.77;;;1.80;;
69569;SDS011;56781;42.292;23.146;2022-11-21T07:55:46;6.00;;;1.70;;
69569;SDS011;56781;42.292;23.146;2022-11-21T07:58:14;5.28;;;1.15;;
69569;SDS011;56781;42.292;23.146;2022-11-21T08:00:42;3.00;;;0.90;;
69569;SDS011;56781;42.292;23.146;2022-11-21T08:03:10;3.70;;;0.95;;
69569;SDS011;56781;42.292;23.146;2022-11-21T08:05:39;4.85;;;1.17;;
69569;SDS011;56781;42.292;23.146;2022-11-21T08:08:08;6.00;;;1.30;;
69569;SDS011;56781;42.292;23.146;2022-11-21T08:10:37;3.25;;;1.00;;
69569;SDS011;56781;42.292;23.146;2022-11-21T08:13:05;6.88;;;1.50;;
69569;SDS011;56781;42.292;23.146;2022-11-21T08:15:33;4.78;;;1.63;;
69569;SDS011;56781;42.292;23.146;2022-11-21T08:18:22;4.60;;;1.50;;
69569;SDS011;56781;42.292;23.146;2022-11-21T08:20:48;5.55;;;1.33;;
69569;SDS011;56781;42.292;23.146;2022-11-21T08:23:15;6.18;;;1.40;;
69569;SDS011;56781;42.292;23.146;2022-11-21T08:25:42;7.25;;;2.13;;
69569;SDS011;56781;42.292;23.146;2022-11-21T08:28:09;9.25;;;1.70;;
69569;SDS011;56781;42.292;23.146;2022-11-21T08:30:38;15.52;;;4.38;;
69569;SDS011;56781;42.292;23.146;2022-11-21T08:33:06;14.73;;;4.38;;
69569;SDS011;56781;42.292;23.146;2022-11-21T08:35:34;6.70;;;1.77;;
69569;SDS011;56781;42.292;23.146;2022-11-21T08:38:03;8.18;;;2.55;;
69569;SDS011;56781;42.292;23.146;2022-11-21T08:40:31;9.48;;;1.77;;
69569;SDS011;56781;42.292;23.146;2022-11-21T08:43:02;7.97;;;1.97;;
69569;SDS011;56781;42.292;23.146;2022-11-21T08:45:31;9.35;;;2.60;;
69569;SDS011;56781;42.292;23.146;2022-11-21T08:48:00;6.78;;;2.30;;
69569;SDS011;56781;42.292;23.146;2022-11-21T08:50:27;7.15;;;2.40;;
69569;SDS011;56781;42.292;23.146;2022-11-21T08:52:58;4.53;;;1.40;;
69569;SDS011;56781;42.292;23.146;2022-11-21T08:55:27;6.43;;;1.47;;
69569;SDS011;56781;42.292;23.146;2022-11-21T08:57:54;5.13;;;1.40;;
69569;SDS011;56781;42.292;23.146;2022-11-21T09:00:21;6.15;;;2.17;;
69569;SDS011;56781;42.292;23.146;2022-11-21T09:02:49;7.18;;;1.40;;
69569;SDS011;56781;42.292;23.146;2022-11-21T09:05:16;5.45;;;2.00;;
69569;SDS011;56781;42.292;23.146;2022-11-21T09:07:43;6.10;;;1.65;;
69569;SDS011;56781;42.292;23.146;2022-11-21T09:10:10;5.63;;;2.13;;
69569;SDS011;56781;42.292;23.146;2022-11-21T09:12:38;6.47;;;1.70;;
69569;SDS011;56781;42.292;23.146;2022-11-21T09:15:05;6.05;;;2.40;;
69569;SDS011;56781;42.292;23.146;2022-11-21T09:17:51;18.63;;;6.82;;
69569;SDS011;56781;42.292;23.146;2022-11-21T09:20:31;7.60;;;3.57;;
69569;SDS011;56781;42.292;23.146;2022-11-21T09:23:04;8.43;;;3.58;;
69569;SDS011;56781;42.292;23.146;2022-11-21T09:25:32;5.38;;;2.30;;
69569;SDS011;56781;42.292;23.146;2022-11-21T09:28:03;8.27;;;3.00;;
69569;SDS011;56781;42.292;23.146;2022-11-21T09:30:31;3.95;;;1.40;;
69569;SDS011;56781;42.292;23.146;2022-11-21T09:32:59;5.63;;;1.40;;
69569;SDS011;56781;42.292;23.146;2022-11-21T09:35:27;7.43;;;2.70;;
69569;SDS011;56781;42.292;23.146;2022-11-21T09:37:56;11.70;;;6.03;;
69569;SDS011;56781;42.292;23.146;2022-11-21T09:40:23;7.15;;;3.30;;
69569;SDS011;56781;42.292;23.146;2022-11-21T09:48:12;7.78;;;2.95;;
69569;SDS011;56781;42.292;23.146;2022-11-21T09:50:43;6.45;;;2.80;;
69569;SDS011;56781;42.292;23.146;2022-11-21T09:53:23;5.28;;;2.70;;
69569;SDS011;56781;42.292;23.146;2022-11-21T09:58:42;4.20;;;1.52;;
69569;SDS011;56781;42.292;23.146;2022-11-21T10:01:15;5.47;;;1.25;;
69569;SDS011;56781;42.292;23.146;2022-11-21T10:03:44;6.60;;;2.20;;
69569;SDS011;56781;42.292;23.146;2022-11-21T10:06:26;7.30;;;2.53;;
69569;SDS011;56781;42.292;23.146;2022-11-21T10:09:06;4.95;;;1.58;;
69569;SDS011;56781;42.292;23.146;2022-11-21T10:12:26;11.43;;;4.10;;
69569;SDS011;56781;42.292;23.146;2022-11-21T10:25:44;1.83;;;0.60;;
69569;SDS011;56781;42.292;23.146;2022-11-21T10:31:22;2.08;;;0.50;;
69569;SDS011;56781;42.292;23.146;2022-11-21T10:34:09;4.57;;;0.95;;
69569;SDS011;56781;42.292;23.146;2022-11-21T10:36:40;3.28;;;0.90;;
69569;SDS011;56781;42.292;23.146;2022-11-21T10:39:33;2.10;;;0.53;;
69569;SDS011;56781;42.292;23.146;2022-11-21T10:42:17;9.45;;;1.35;;
69569;SDS011;56781;42.292;23.146;2022-11-21T10:44:58;4.38;;;0.93;;
69569;SDS011;56781;42.292;23.146;2022-11-21T10:47:46;1.67;;;0.22;;
69569;SDS011;56781;42.292;23.146;2022-11-21T10:50:17;2.28;;;0.70;;
69569;SDS011;56781;42.292;23.146;2022-11-21T10:52:49;3.40;;;1.10;;
69569;SDS011;56781;42.292;23.146;2022-11-21T10:56:10;1.95;;;0.43;;
69569;SDS011;56781;42.292;23.146;2022-11-21T10:58:44;2.22;;;0.60;;
69569;SDS011;56781;42.292;23.146;2022-11-21T11:01:32;3.28;;;0.60;;
69569;SDS011;56781;42.292;23.146;2022-11-21T11:07:12;2.33;;;0.50;;
69569;SDS011;56781;42.292;23.146;2022-11-21T11:09:48;1.92;;;0.60;;
69569;SDS011;56781;42.292;23.146;2022-11-21T11:14:52;1.48;;;0.40;;
69569;SDS011;56781;42.292;23.146;2022-11-21T11:17:25;1.88;;;0.50;;
69569;SDS011;56781;42.292;23.146;2022-11-21T11:20:05;1.03;;;0.30;;
69569;SDS011;56781;42.292;23.146;2022-11-21T11:22:52;0.90;;;0.20;;
69569;SDS011;56781;42.292;23.146;2022-11-21T11:25:19;1.20;;;0.40;;
69569;SDS011;56781;42.292;23.146;2022-11-21T11:27:48;1.65;;;0.50;;
69569;SDS011;56781;42.292;23.146;2022-11-21T11:30:16;1.48;;;0.47;;
69569;SDS011;56781;42.292;23.146;2022-11-21T11:32:45;1.50;;;0.40;;
69569;SDS011;56781;42.292;23.146;2022-11-21T11:37:50;1.20;;;0.32;;
69569;SDS011;56781;42.292;23.146;2022-11-21T11:40:34;2.17;;;0.60;;
69569;SDS011;56781;42.292;23.146;2022-11-21T11:43:11;1.15;;;0.40;;
69569;SDS011;56781;42.292;23.146;2022-11-21T11:46:22;1.47;;;0.50;;
69569;SDS011;56781;42.292;23.146;2022-11-21T11:49:28;2.00;;;0.60;;
69569;SDS011;56781;42.292;23.146;2022-11-21T11:51:58;1.65;;;0.50;;
69569;SDS011;56781;42.292;23.146;2022-11-21T11:54:32;1.00;;;0.40;;
69569;SDS011;56781;42.292;23.146;2022-11-21T11:57:15;1.40;;;0.40;;
69569;SDS011;56781;42.292;23.146;2022-11-21T11:59:46;2.23;;;0.43;;
69569;SDS011;56781;42.292;23.146;2022-11-21T12:02:28;1.23;;;0.32;;
69569;SDS011;56781;42.292;23.146;2022-11-21T12:05:22;1.90;;;0.50;;
69569;SDS011;56781;42.292;23.146;2022-11-21T12:17:39;1.75;;;0.50;;
69569;SDS011;56781;42.292;23.146;2022-11-21T12:20:22;2.03;;;0.52;;
69569;SDS011;56781;42.292;23.146;2022-11-21T12:22:55;2.38;;;0.60;;
69569;SDS011;56781;42.292;23.146;2022-11-21T12:25:26;2.47;;;0.77;;
69569;SDS011;56781;42.292;23.146;2022-11-21T12:27:57;1.63;;;0.50;;
69569;SDS011;56781;42.292;23.146;2022-11-21T12:47:33;2.67;;;1.08;;
69569;SDS011;56781;42.292;23.146;2022-11-21T12:54:04;17.80;;;4.57;;
69569;SDS011;56781;42.292;23.146;2022-11-21T12:57:03;11.07;;;3.77;;
69569;SDS011;56781;42.292;23.146;2022-11-21T13:02:24;11.48;;;3.42;;
69569;SDS011;56781;42.292;23.146;2022-11-21T13:05:00;5.57;;;2.45;;
69569;SDS011;56781;42.292;23.146;2022-11-21T13:07:30;5.05;;;1.92;;
69569;SDS011;56781;42.292;23.146;2022-11-21T13:09:59;8.83;;;3.67;;
69569;SDS011;56781;42.292;23.146;2022-11-21T13:15:17;13.55;;;6.85;;
69569;SDS011;56781;42.292;23.146;2022-11-21T13:17:53;6.97;;;3.55;;
69569;SDS011;56781;42.292;23.146;2022-11-21T13:20:26;6.65;;;2.83;;
69569;SDS011;56781;42.292;23.146;2022-11-21T13:22:58;4.77;;;2.20;;
69569;SDS011;56781;42.292;23.146;2022-11-21T13:30:45;21.55;;;9.93;;
69569;SDS011;56781;42.292;23.146;2022-11-21T13:47:01;10.75;;;5.57;;
69569;SDS011;56781;42.292;23.146;2022-11-21T13:49:30;3.53;;;1.37;;
69569;SDS011;56781;42.292;23.146;2022-11-21T13:52:25;3.78;;;1.48;;
69569;SDS011;56781;42.292;23.146;2022-11-21T13:55:14;10.10;;;4.90;;
69569;SDS011;56781;42.292;23.146;2022-11-21T14:04:00;9.73;;;5.00;;
69569;SDS011;56781;42.292;23.146;2022-11-21T14:06:42;16.05;;;7.50;;
69569;SDS011;56781;42.292;23.146;2022-11-21T14:12:18;8.73;;;3.30;;
69569;SDS011;56781;42.292;23.146;2022-11-21T14:17:46;7.27;;;3.60;;
69569;SDS011;56781;42.292;23.146;2022-11-21T14:22:53;24.73;;;10.13;;
69569;SDS011;56781;42.292;23.146;2022-11-21T14:25:32;11.45;;;4.53;;
69569;SDS011;56781;42.292;23.146;2022-11-21T14:28:08;4.18;;;1.70;;
69569;SDS011;56781;42.292;23.146;2022-11-21T14:30:41;9.83;;;2.60;;
69569;SDS011;56781;42.292;23.146;2022-11-21T14:33:19;5.85;;;1.70;;
69569;SDS011;56781;42.292;23.146;2022-11-21T14:35:49;7.57;;;3.20;;
69569;SDS011;56781;42.292;23.146;2022-11-21T14:38:41;6.93;;;3.05;;
69569;SDS011;56781;42.292;23.146;2022-11-21T14:41:38;7.38;;;3.67;;
69569;SDS011;56781;42.292;23.146;2022-11-21T14:44:12;9.57;;;4.40;;
69569;SDS011;56781;42.292;23.146;2022-11-21T14:46:41;18.90;;;8.02;;
69569;SDS011;56781;42.292;23.146;2022-11-21T14:51:49;12.45;;;5.40;;
69569;SDS011;56781;42.292;23.146;2022-11-21T14:54:21;16.88;;;7.55;;
69569;SDS011;56781;42.292;23.146;2022-11-21T14:56:59;20.50;;;9.23;;
69569;SDS011;56781;42.292;23.146;2022-11-21T14:59:39;42.15;;;13.45;;
69569;SDS011;56781;42.292;23.146;2022-11-21T15:02:13;23.88;;;10.85;;
69569;SDS011;56781;42.292;23.146;2022-11-21T15:04:45;6.65;;;3.13;;
69569;SDS011;56781;42.292;23.146;2022-11-21T15:07:17;6.70;;;1.90;;
69569;SDS011;56781;42.292;23.146;2022-11-21T15:09:55;8.20;;;3.23;;
69569;SDS011;56781;42.292;23.146;2022-11-21T15:17:47;38.65;;;13.15;;
69569;SDS011;56781;42.292;23.146;2022-11-21T15:20:44;19.98;;;9.05;;
69569;SDS011;56781;42.292;23.146;2022-11-21T15:26:25;20.30;;;8.05;;
69569;SDS011;56781;42.292;23.146;2022-11-21T15:28:58;10.32;;;5.20;;
69569;SDS011;56781;42.292;23.146;2022-11-21T15:31:28;28.77;;;13.18;;
69569;SDS011;56781;42.292;23.146;2022-11-21T15:33:59;27.10;;;12.90;;
69569;SDS011;56781;42.292;23.146;2022-11-21T15:37:01;22.03;;;12.30;;
69569;SDS011;56781;42.292;23.146;2022-11-21T15:39:41;11.00;;;5.60;;
69569;SDS011;56781;42.292;23.146;2022-11-21T15:47:45;21.25;;;10.73;;
69569;SDS011;56781;42.292;23.146;2022-11-21T15:50:14;16.60;;;6.10;;
69569;SDS011;56781;42.292;23.146;2022-11-21T15:52:49;5.63;;;2.10;;
69569;SDS011;56781;42.292;23.146;2022-11-21T15:55:18;14.90;;;6.72;;
69569;SDS011;56781;42.292;23.146;2022-11-21T15:57:57;11.65;;;5.25;;
69569;SDS011;56781;42.292;23.146;2022-11-21T16:00:24;13.65;;;6.30;;
69569;SDS011;56781;42.292;23.146;2022-11-21T16:02:51;8.27;;;3.73;;
69569;SDS011;56781;42.292;23.146;2022-11-21T16:05:18;6.50;;;3.25;;
69569;SDS011;56781;42.292;23.146;2022-11-21T16:07:45;10.45;;;4.82;;
69569;SDS011;56781;42.292;23.146;2022-11-21T16:10:14;14.88;;;6.68;;
69569;SDS011;56781;42.292;23.146;2022-11-21T16:12:52;11.98;;;5.30;;
69569;SDS011;56781;42.292;23.146;2022-11-21T16:15:20;11.73;;;5.00;;
69569;SDS011;56781;42.292;23.146;2022-11-21T16:17:47;13.52;;;6.18;;
69569;SDS011;56781;42.292;23.146;2022-11-21T16:20:14;8.75;;;4.20;;
69569;SDS011;56781;42.292;23.146;2022-11-21T16:22:41;8.82;;;4.72;;
69569;SDS011;56781;42.292;23.146;2022-11-21T16:25:13;9.13;;;4.00;;
69569;SDS011;56781;42.292;23.146;2022-11-21T16:27:41;15.03;;;5.23;;
69569;SDS011;56781;42.292;23.146;2022-11-21T16:30:08;20.05;;;7.65;;
69569;SDS011;56781;42.292;23.146;2022-11-21T16:32:36;18.58;;;8.75;;
69569;SDS011;56781;42.292;23.146;2022-11-21T16:35:03;6.30;;;2.28;;
69569;SDS011;56781;42.292;23.146;2022-11-21T16:37:31;7.47;;;2.80;;
69569;SDS011;56781;42.292;23.146;2022-11-21T16:39:58;7.00;;;2.73;;
69569;SDS011;56781;42.292;23.146;2022-11-21T16:42:25;7.35;;;3.42;;
69569;SDS011;56781;42.292;23.146;2022-11-21T16:44:52;8.27;;;2.50;;
69569;SDS011;56781;42.292;23.146;2022-11-21T16:47:20;16.13;;;7.00;;
69569;SDS011;56781;42.292;23.146;2022-11-21T16:49:47;19.33;;;7.75;;
69569;SDS011;56781;42.292;23.146;2022-11-21T16:52:14;32.57;;;10.87;;